Time,TemperatureF,DewpointF,PressureIn,WindDirection,WindDirectionDegrees,WindSpeedMPH,WindSpeedGustMPH,Humidity,HourlyPrecipIn,Conditions,Clouds,dailyrainin,SoftwareType,DateUTC
2013-01-21 00:04:00,1.0,-4.3,30.11,WNW,292,9.1,12.7,78,0.00,CLR,SKC,0.00,WeatherDisplay:10.37,2013-01-21 06:04:00,
2013-01-21 00:09:00,0.8,-4.7,30.11,NW,310,8.2,11.5,77,0.00,CLR,SKC,0.00,WeatherDisplay:10.37,2013-01-21 06:09:00,
2013-01-21 00:14:00,0.4,-5.1,30.11,NW,307,11.8,15.0,77,0.00,CLR,SKC,0.00,WeatherDisplay:10.37,2013-01-21 06:14:00,
2013-01-21 00:19:00,0.1,-5.4,30.11,NW,310,10.2,15.0,77,0.00,CLR,SKC,0.00,WeatherDisplay:10.37,2013-01-21 06:19:00,
2013-01-21 00:25:00,0.1,-5.4,30.11,WNW,296,8.5,11.5,77,0.00,SCT,SKC,0.00,WeatherDisplay:10.37,2013-01-21 06:25:00,
2013-01-21 00:30:00,-0.1,-5.3,30.11,NW,305,10.7,14.0,78,0.00,SCT,SKC,0.00,WeatherDisplay:10.37,2013-01-21 06:30:00,
2013-01-21 00:35:00,-0.3,-5.8,30.11,WNW,301,9.1,12.7,77,0.00,SCT,SKC,0.00,WeatherDisplay:10.37,2013-01-21 06:35:00,
2013-01-21 00:40:00,-0.4,-5.9,30.11,WNW,297,8.3,15.0,77,0.00,SCT,SKC,0.00,WeatherDisplay:10.37,2013-01-21 06:40:00,
2013-01-21 00:45:00,-0.4,-5.9,30.11,NW,305,11.0,15.0,77,0.00,SCT,SKC,0.00,WeatherDisplay:10.37,2013-01-21 06:45:00,
2013-01-21 00:50:00,-0.6,-6.1,30.11,WNW,290,8.8,13.8,77,0.00,SCT,SKC,0.00,WeatherDisplay:10.37,2013-01-21 06:50:00,
2013-01-21 00:55:00,-0.7,-6.2,30.11,WNW,300,10.1,13.8,77,0.00,SCT,SKC,0.00,WeatherDisplay:10.37,2013-01-21 06:55:00,
2013-01-21 01:00:00,-0.9,-6.4,30.12,WNW,290,9.5,12.0,77,0.00,SCT,SKC,0.00,WeatherDisplay:10.37,2013-01-21 07:00:00,
2013-01-21 01:05:00,-1.0,-6.5,30.12,WNW,285,8.6,11.5,77,0.00,CLR,SKC,0.00,WeatherDisplay:10.37,2013-01-21 07:05:00,
2013-01-21 01:10:00,-1.0,-6.7,30.12,WNW,291,10.5,13.8,76,0.00,CLR,SKC,0.00,WeatherDisplay:10.37,2013-01-21 07:10:00,
2013-01-21 01:15:00,-1.1,-6.8,30.12,WNW,295,9.9,13.8,76,0.00,CLR,SKC,0.00,WeatherDisplay:10.37,2013-01-21 07:15:00,
2013-01-21 01:20:00,-1.2,-6.7,30.12,WNW,294,8.9,11.5,77,0.00,CLR,SKC,0.00,WeatherDisplay:10.37,2013-01-21 07:20:00,
2013-01-21 01:25:00,-1.3,-6.8,30.12,WNW,294,9.7,13.8,77,0.00,CLR,SKC,0.00,WeatherDisplay:10.37,2013-01-21 07:25:00,
2013-01-21 01:30:00,-1.4,-7.1,30.12,WNW,292,11.0,13.0,76,0.00,CLR,SKC,0.00,WeatherDisplay:10.37,2013-01-21 07:30:00,
2013-01-21 01:35:00,-1.6,-7.6,30.13,West,279,10.3,16.1,75,0.00,CLR,SKC,0.00,WeatherDisplay:10.37,2013-01-21 07:35:00,
2013-01-21 01:40:00,-1.7,-7.7,30.13,WNW,298,9.0,13.8,75,0.00,CLR,SKC,0.00,WeatherDisplay:10.37,2013-01-21 07:40:00,
2013-01-21 01:45:00,-1.8,-7.8,30.13,NW,308,11.8,16.0,75,0.00,CLR,SKC,0.00,WeatherDisplay:10.37,2013-01-21 07:45:00,
2013-01-21 01:50:00,-1.8,-8.1,30.13,NW,310,10.4,15.0,74,0.00,CLR,SKC,0.00,WeatherDisplay:10.37,2013-01-21 07:50:00,
2013-01-21 01:55:00,-1.9,-7.9,30.13,NW,308,8.2,11.0,75,0.00,CLR,SKC,0.00,WeatherDisplay:10.37,2013-01-21 07:55:00,
2013-01-21 02:00:00,-1.9,-7.9,30.14,NW,306,7.8,11.5,75,0.00,CLR,SKC,0.00,WeatherDisplay:10.37,2013-01-21 08:00:00,
2013-01-21 02:05:00,-1.9,-7.9,30.14,WNW,299,9.6,13.8,75,0.00,CLR,SKC,0.00,WeatherDisplay:10.37,2013-01-21 08:05:00,
2013-01-21 02:10:00,-2.0,-8.0,30.14,WNW,301,6.2,11.5,75,0.00,CLR,SKC,0.00,WeatherDisplay:10.37,2013-01-21 08:10:00,
2013-01-21 02:15:00,-2.0,-8.0,30.14,WNW,288,7.4,11.5,75,0.00,CLR,SKC,0.00,WeatherDisplay:10.37,2013-01-21 08:15:00,
2013-01-21 02:20:00,-2.1,-8.1,30.13,WNW,299,9.5,15.0,75,0.00,CLR,SKC,0.00,WeatherDisplay:10.37,2013-01-21 08:20:00,
2013-01-21 02:25:00,-2.1,-8.1,30.13,WNW,290,8.5,11.0,75,0.00,CLR,SKC,0.00,WeatherDisplay:10.37,2013-01-21 08:25:00,
2013-01-21 02:30:00,-2.2,-8.2,30.13,WNW,294,7.4,11.5,75,0.00,CLR,SKC,0.00,WeatherDisplay:10.37,2013-01-21 08:30:00,
2013-01-21 02:35:00,-2.2,-8.2,30.14,WNW,298,7.3,12.7,75,0.00,CLR,SKC,0.00,WeatherDisplay:10.37,2013-01-21 08:35:00,
2013-01-21 02:40:00,-2.2,-8.5,30.13,WNW,293,9.8,12.7,74,0.00,CLR,SKC,0.00,WeatherDisplay:10.37,2013-01-21 08:40:00,
2013-01-21 02:45:00,-2.3,-8.6,30.13,WNW,300,11.3,14.0,74,0.00,CLR,SKC,0.00,WeatherDisplay:10.37,2013-01-21 08:45:00,
2013-01-21 02:50:00,-2.3,-8.3,30.13,WNW,296,8.8,11.5,75,0.00,CLR,SKC,0.00,WeatherDisplay:10.37,2013-01-21 08:50:00,
2013-01-21 02:55:00,-2.3,-8.3,30.13,WNW,297,11.2,16.0,75,0.00,CLR,SKC,0.00,WeatherDisplay:10.37,2013-01-21 08:55:00,
2013-01-21 03:00:00,-2.3,-8.0,30.13,WNW,298,8.3,10.4,76,0.00,CLR,SKC,0.00,WeatherDisplay:10.37,2013-01-21 09:00:00,
2013-01-21 03:05:00,-2.4,-8.1,30.13,WNW,301,9.6,16.1,76,0.00,CLR,SKC,0.00,WeatherDisplay:10.37,2013-01-21 09:05:00,
2013-01-21 03:10:00,-2.6,-8.3,30.13,NW,304,10.1,16.1,76,0.00,CLR,SKC,0.00,WeatherDisplay:10.37,2013-01-21 09:10:00,
2013-01-21 03:15:00,-2.7,-8.4,30.13,WNW,295,9.2,16.1,76,0.00,CLR,SKC,0.00,WeatherDisplay:10.37,2013-01-21 09:15:00,
2013-01-21 03:20:00,-2.7,-8.4,30.13,WNW,300,9.1,12.0,76,0.00,CLR,SKC,0.00,WeatherDisplay:10.37,2013-01-21 09:20:00,
2013-01-21 03:25:00,-2.8,-8.5,30.13,WNW,298,7.3,12.7,76,0.00,CLR,SKC,0.00,WeatherDisplay:10.37,2013-01-21 09:25:00,
2013-01-21 03:31:00,-2.8,-8.5,30.13,WNW,298,11.0,16.1,76,0.00,CLR,SKC,0.00,WeatherDisplay:10.37,2013-01-21 09:31:00,
2013-01-21 03:36:00,-2.8,-8.5,30.13,WNW,298,9.7,15.0,76,0.00,CLR,SKC,0.00,WeatherDisplay:10.37,2013-01-21 09:36:00,
2013-01-21 03:41:00,-2.9,-8.3,30.13,WNW,298,11.0,15.0,77,0.00,CLR,SKC,0.00,WeatherDisplay:10.37,2013-01-21 09:41:00,
2013-01-21 03:46:00,-3.1,-8.5,30.13,WNW,294,10.6,15.0,77,0.00,CLR,SKC,0.00,WeatherDisplay:10.37,2013-01-21 09:46:00,
2013-01-21 03:51:00,-3.3,-8.7,30.13,NW,308,11.4,14.0,77,0.00,CLR,SKC,0.00,WeatherDisplay:10.37,2013-01-21 09:51:00,
2013-01-21 03:56:00,-3.5,-8.9,30.13,NW,307,11.7,15.0,77,0.00,CLR,SKC,0.00,WeatherDisplay:10.37,2013-01-21 09:56:00,
2013-01-21 04:01:00,-3.6,-9.0,30.12,NW,309,10.7,15.0,77,0.00,CLR,SKC,0.00,WeatherDisplay:10.37,2013-01-21 10:01:00,
2013-01-21 04:06:00,-4.0,-9.4,30.13,WNW,302,10.9,16.0,77,0.00,CLR,SKC,0.00,WeatherDisplay:10.37,2013-01-21 10:06:00,
2013-01-21 04:11:00,-4.5,-10.1,30.13,WNW,296,10.2,12.7,76,0.00,CLR,SKC,0.00,WeatherDisplay:10.37,2013-01-21 10:11:00,
2013-01-21 04:16:00,-5.2,-11.4,30.13,WNW,291,10.2,15.0,74,0.00,CLR,SKC,0.00,WeatherDisplay:10.37,2013-01-21 10:16:00,
2013-01-21 04:21:00,-5.7,-12.1,30.13,West,280,10.3,13.8,73,0.00,CLR,SKC,0.00,WeatherDisplay:10.37,2013-01-21 10:21:00,
2013-01-21 04:26:00,-5.9,-12.0,30.13,WNW,296,12.8,15.0,74,0.00,CLR,SKC,0.00,WeatherDisplay:10.37,2013-01-21 10:26:00,
2013-01-21 04:31:00,-6.1,-12.2,30.13,NW,313,9.2,12.7,74,0.00,CLR,SKC,0.00,WeatherDisplay:10.37,2013-01-21 10:31:00,
2013-01-21 04:36:00,-6.2,-12.3,30.13,WNW,297,12.7,19.6,74,0.00,CLR,SKC,0.00,WeatherDisplay:10.37,2013-01-21 10:36:00,
2013-01-21 04:41:00,-6.4,-12.8,30.13,WNW,298,12.2,15.0,73,0.00,CLR,SKC,0.00,WeatherDisplay:10.37,2013-01-21 10:41:00,
2013-01-21 04:46:00,-6.5,-12.9,30.13,WNW,298,9.2,11.5,73,0.00,CLR,SKC,0.00,WeatherDisplay:10.37,2013-01-21 10:46:00,
2013-01-21 04:51:00,-6.8,-13.2,30.14,WNW,296,9.7,12.7,73,0.00,CLR,SKC,0.00,WeatherDisplay:10.37,2013-01-21 10:51:00,
2013-01-21 04:56:00,-6.8,-12.9,30.14,WNW,300,9.6,11.5,74,0.00,CLR,SKC,0.00,WeatherDisplay:10.37,2013-01-21 10:56:00,
2013-01-21 05:01:00,-7.0,-13.1,30.14,WNW,296,9.5,11.5,74,0.00,CLR,SKC,0.00,WeatherDisplay:10.37,2013-01-21 11:01:00,
2013-01-21 05:06:00,-7.0,-12.8,30.14,WNW,292,11.1,14.0,75,0.00,CLR,SKC,0.00,WeatherDisplay:10.37,2013-01-21 11:06:00,
2013-01-21 05:11:00,-7.2,-13.3,30.14,WNW,303,10.5,12.7,74,0.00,CLR,SKC,0.00,WeatherDisplay:10.37,2013-01-21 11:11:00,
2013-01-21 05:16:00,-7.2,-13.0,30.14,WNW,300,10.5,13.8,75,0.00,CLR,SKC,0.00,WeatherDisplay:10.37,2013-01-21 11:16:00,
2013-01-21 05:21:00,-7.3,-13.1,30.14,WNW,292,10.8,13.0,75,0.00,CLR,SKC,0.00,WeatherDisplay:10.37,2013-01-21 11:21:00,
2013-01-21 05:26:00,-7.4,-13.2,30.14,WNW,302,8.7,11.5,75,0.00,CLR,SKC,0.00,WeatherDisplay:10.37,2013-01-21 11:26:00,
2013-01-21 05:31:00,-7.3,-12.9,30.14,WNW,298,9.2,12.0,76,0.00,CLR,SKC,0.00,WeatherDisplay:10.37,2013-01-21 11:31:00,
2013-01-21 05:36:00,-7.5,-13.3,30.14,WNW,294,9.5,15.0,75,0.00,CLR,SKC,0.00,WeatherDisplay:10.37,2013-01-21 11:36:00,
2013-01-21 05:41:00,-7.6,-13.4,30.14,WNW,300,11.5,15.0,75,0.00,CLR,SKC,0.00,WeatherDisplay:10.37,2013-01-21 11:41:00,
2013-01-21 05:46:00,-7.6,-13.4,30.14,WNW,290,8.6,11.5,75,0.00,CLR,SKC,0.00,WeatherDisplay:10.37,2013-01-21 11:46:00,
2013-01-21 05:51:00,-7.6,-13.4,30.14,WNW,301,10.0,13.0,75,0.00,CLR,SKC,0.00,WeatherDisplay:10.37,2013-01-21 11:51:00,
2013-01-21 05:56:00,-7.7,-13.8,30.14,WNW,282,9.4,13.0,74,0.00,CLR,SKC,0.00,WeatherDisplay:10.37,2013-01-21 11:56:00,
2013-01-21 06:01:00,-7.9,-14.3,30.14,WNW,298,9.6,15.0,73,0.00,CLR,SKC,0.00,WeatherDisplay:10.37,2013-01-21 12:01:00,
2013-01-21 06:06:00,-8.0,-14.3,30.15,WNW,300,9.6,12.7,73,0.00,CLR,SKC,0.00,WeatherDisplay:10.37,2013-01-21 12:06:00,
2013-01-21 06:11:00,-8.0,-14.1,30.14,NW,304,8.9,12.7,74,0.00,CLR,SKC,0.00,WeatherDisplay:10.37,2013-01-21 12:11:00,
2013-01-21 06:16:00,-8.1,-14.2,30.14,NW,304,10.3,12.0,74,0.00,CLR,SKC,0.00,WeatherDisplay:10.37,2013-01-21 12:16:00,
2013-01-21 06:21:00,-8.3,-14.6,30.15,WNW,294,9.4,16.1,73,0.00,CLR,SKC,0.00,WeatherDisplay:10.37,2013-01-21 12:21:00,
2013-01-21 06:26:00,-8.3,-14.6,30.15,WNW,298,7.9,11.5,73,0.00,CLR,SKC,0.00,WeatherDisplay:10.37,2013-01-21 12:26:00,
2013-01-21 06:31:00,-8.2,-14.3,30.15,WNW,298,9.8,11.5,74,0.00,CLR,SKC,0.00,WeatherDisplay:10.37,2013-01-21 12:31:00,
2013-01-21 06:36:00,-8.3,-14.6,30.15,WNW,294,9.3,13.8,73,0.00,CLR,SKC,0.00,WeatherDisplay:10.37,2013-01-21 12:36:00,
2013-01-21 06:41:00,-8.3,-14.4,30.15,NW,306,10.0,12.7,74,0.00,CLR,SKC,0.00,WeatherDisplay:10.37,2013-01-21 12:41:00,
2013-01-21 06:46:00,-8.4,-14.7,30.15,NW,304,7.9,11.5,73,0.00,CLR,SKC,0.00,WeatherDisplay:10.37,2013-01-21 12:46:00,
2013-01-21 06:51:00,-8.3,-14.6,30.15,NW,307,12.1,16.0,73,0.00,CLR,SKC,0.00,WeatherDisplay:10.37,2013-01-21 12:51:00,
2013-01-21 06:56:00,-8.5,-14.8,30.15,NW,310,8.5,12.7,73,0.00,CLR,SKC,0.00,WeatherDisplay:10.37,2013-01-21 12:56:00,
2013-01-21 07:01:00,-8.5,-14.8,30.15,WNW,299,9.4,11.5,73,0.00,CLR,SKC,0.00,WeatherDisplay:10.37,2013-01-21 13:01:00,
2013-01-21 07:06:00,-8.5,-14.6,30.15,WNW,294,8.4,11.5,74,0.00,CLR,SKC,0.00,WeatherDisplay:10.37,2013-01-21 13:06:00,
2013-01-21 07:11:00,-8.4,-14.5,30.15,WNW,303,8.3,11.5,74,0.00,CLR,SKC,0.00,WeatherDisplay:10.37,2013-01-21 13:11:00,
2013-01-21 07:16:00,-8.5,-14.6,30.15,WNW,296,10.0,15.0,74,0.00,CLR,SKC,0.00,WeatherDisplay:10.37,2013-01-21 13:16:00,
2013-01-21 07:21:00,-8.5,-14.6,30.15,WNW,301,9.4,11.5,74,0.00,CLR,SKC,0.00,WeatherDisplay:10.37,2013-01-21 13:21:00,
2013-01-21 07:26:00,-8.5,-14.6,30.15,WNW,292,9.1,13.0,74,0.00,CLR,SKC,0.00,WeatherDisplay:10.37,2013-01-21 13:26:00,
2013-01-21 07:31:00,-8.5,-14.6,30.15,WNW,296,8.3,10.4,74,0.00,CLR,SKC,0.00,WeatherDisplay:10.37,2013-01-21 13:31:00,
2013-01-21 07:36:00,-8.6,-14.7,30.15,WNW,296,8.5,10.4,74,0.00,CLR,SKC,0.00,WeatherDisplay:10.37,2013-01-21 13:36:00,
2013-01-21 07:41:00,-8.6,-14.7,30.16,WNW,300,9.5,11.5,74,0.00,CLR,SKC,0.00,WeatherDisplay:10.37,2013-01-21 13:41:00,
2013-01-21 07:46:00,-8.6,-14.7,30.15,WNW,296,6.6,8.1,74,0.00,CLR,SKC,0.00,WeatherDisplay:10.37,2013-01-21 13:46:00,
2013-01-21 07:51:00,-8.7,-14.8,30.16,WNW,299,8.5,11.5,74,0.00,CLR,SKC,0.00,WeatherDisplay:10.37,2013-01-21 13:51:00,
2013-01-21 07:56:00,-8.6,-14.7,30.15,WNW,303,7.6,10.4,74,0.00,CLR,SKC,0.00,WeatherDisplay:10.37,2013-01-21 13:56:00,
2013-01-21 08:01:00,-8.4,-14.5,30.16,WNW,294,6.4,10.4,74,0.00,CLR,SKC,0.00,WeatherDisplay:10.37,2013-01-21 14:01:00,
2013-01-21 08:06:00,-8.4,-14.5,30.16,WNW,299,7.4,10.0,74,0.00,CLR,SKC,0.00,WeatherDisplay:10.37,2013-01-21 14:06:00,
2013-01-21 08:11:00,-8.3,-14.4,30.16,WNW,300,6.7,11.5,74,0.00,CLR,SKC,0.00,WeatherDisplay:10.37,2013-01-21 14:11:00,
2013-01-21 08:16:00,-8.1,-14.2,30.16,WNW,302,6.9,9.0,74,0.00,CLR,SKC,0.00,WeatherDisplay:10.37,2013-01-21 14:16:00,
2013-01-21 08:21:00,-7.8,-13.9,30.16,WNW,298,7.4,9.2,74,0.00,CLR,SKC,0.00,WeatherDisplay:10.37,2013-01-21 14:21:00,
2013-01-21 08:26:00,-7.7,-13.8,30.16,WNW,296,6.5,11.5,74,0.00,CLR,SKC,0.00,WeatherDisplay:10.37,2013-01-21 14:26:00,
2013-01-21 08:31:00,-7.8,-13.9,30.16,WNW,292,7.9,12.7,74,0.00,CLR,SKC,0.00,WeatherDisplay:10.37,2013-01-21 14:31:00,
2013-01-21 08:36:00,-7.7,-13.8,30.16,WNW,301,10.7,13.0,74,0.00,CLR,SKC,0.00,WeatherDisplay:10.37,2013-01-21 14:36:00,
2013-01-21 08:41:00,-7.5,-13.6,30.16,WNW,303,10.0,12.0,74,0.00,CLR,SKC,0.00,WeatherDisplay:10.37,2013-01-21 14:41:00,
2013-01-21 08:46:00,-7.5,-13.6,30.16,WNW,300,10.6,13.0,74,0.00,CLR,SKC,0.00,WeatherDisplay:10.37,2013-01-21 14:46:00,
2013-01-21 08:51:00,-7.3,-13.4,30.16,NW,306,10.3,12.0,74,0.00,CLR,SKC,0.00,WeatherDisplay:10.37,2013-01-21 14:51:00,
2013-01-21 08:56:00,-7.1,-13.2,30.16,NW,304,11.6,15.0,74,0.00,CLR,SKC,0.00,WeatherDisplay:10.37,2013-01-21 14:56:00,
2013-01-21 09:01:00,-7.0,-13.1,30.17,NW,304,12.0,16.0,74,0.00,CLR,SKC,0.00,WeatherDisplay:10.37,2013-01-21 15:01:00,
2013-01-21 09:06:00,-7.0,-13.4,30.17,WNW,296,10.1,13.8,73,0.00,CLR,SKC,0.00,WeatherDisplay:10.37,2013-01-21 15:06:00,
2013-01-21 09:11:00,-6.8,-13.2,30.17,WNW,294,9.8,15.0,73,0.00,CLR,SKC,0.00,WeatherDisplay:10.37,2013-01-21 15:11:00,
2013-01-21 09:16:00,-6.5,-12.9,30.17,NW,305,11.9,15.0,73,0.00,CLR,SKC,0.00,WeatherDisplay:10.37,2013-01-21 15:16:00,
2013-01-21 09:21:00,-6.4,-12.8,30.17,WNW,303,10.6,13.8,73,0.00,CLR,SKC,0.00,WeatherDisplay:10.37,2013-01-21 15:21:00,
2013-01-21 09:26:00,-6.2,-12.6,30.17,WNW,298,9.5,12.0,73,0.00,CLR,SKC,0.00,WeatherDisplay:10.37,2013-01-21 15:26:00,
2013-01-21 09:31:00,-6.1,-12.5,30.17,WNW,298,10.4,14.0,73,0.00,CLR,SKC,0.00,WeatherDisplay:10.37,2013-01-21 15:31:00,
2013-01-21 09:36:00,-5.9,-12.3,30.17,WNW,293,11.5,14.0,73,0.00,CLR,SKC,0.00,WeatherDisplay:10.37,2013-01-21 15:36:00,
2013-01-21 09:41:00,-5.9,-12.6,30.17,WNW,288,10.5,12.7,72,0.00,CLR,SKC,0.00,WeatherDisplay:10.37,2013-01-21 15:41:00,
2013-01-21 09:46:00,-5.7,-12.1,30.17,WNW,295,10.7,13.0,73,0.00,CLR,SKC,0.00,WeatherDisplay:10.37,2013-01-21 15:46:00,
2013-01-21 09:51:00,-5.3,-11.7,30.17,WNW,294,7.8,12.7,73,0.00,CLR,SKC,0.00,WeatherDisplay:10.37,2013-01-21 15:51:00,
2013-01-21 09:56:00,-4.6,-11.1,30.17,NW,311,8.9,12.0,73,0.00,CLR,SKC,0.00,WeatherDisplay:10.37,2013-01-21 15:56:00,
2013-01-21 10:01:00,-4.5,-11.0,30.18,WNW,303,8.1,11.5,73,0.00,CLR,SKC,0.00,WeatherDisplay:10.37,2013-01-21 16:01:00,
2013-01-21 10:06:00,-4.7,-11.4,30.18,WNW,289,7.7,12.7,72,0.00,CLR,SKC,0.00,WeatherDisplay:10.37,2013-01-21 16:06:00,
2013-01-21 10:11:00,-4.2,-10.7,30.18,WNW,294,10.5,12.0,73,0.00,CLR,SKC,0.00,WeatherDisplay:10.37,2013-01-21 16:11:00,
2013-01-21 10:16:00,-4.2,-10.7,30.19,WNW,294,9.4,11.5,73,0.00,CLR,SKC,0.00,WeatherDisplay:10.37,2013-01-21 16:16:00,
2013-01-21 10:21:00,-4.3,-10.8,30.18,WNW,298,9.8,11.5,73,0.00,CLR,SKC,0.00,WeatherDisplay:10.37,2013-01-21 16:21:00,
2013-01-21 10:26:00,-3.9,-10.1,30.19,WNW,286,10.2,13.0,74,0.00,CLR,SKC,0.00,WeatherDisplay:10.37,2013-01-21 16:26:00,
2013-01-21 10:31:00,-3.5,-9.7,30.19,WNW,300,9.4,15.0,74,0.00,CLR,SKC,0.00,WeatherDisplay:10.37,2013-01-21 16:31:00,
2013-01-21 10:36:00,-3.3,-9.5,30.19,NW,307,11.0,14.0,74,0.00,CLR,SKC,0.00,WeatherDisplay:10.37,2013-01-21 16:36:00,
2013-01-21 10:41:00,-2.9,-9.1,30.19,WNW,293,9.8,12.7,74,0.00,CLR,SKC,0.00,WeatherDisplay:10.37,2013-01-21 16:41:00,
2013-01-21 10:47:00,-3.1,-9.6,30.19,WNW,292,10.5,13.8,73,0.00,CLR,SKC,0.00,WeatherDisplay:10.37,2013-01-21 16:47:00,
2013-01-21 10:52:00,-2.8,-9.0,30.19,WNW,294,10.5,13.0,74,0.00,CLR,SKC,0.00,WeatherDisplay:10.37,2013-01-21 16:52:00,
2013-01-21 10:57:00,-2.7,-9.2,30.19,WNW,296,10.9,13.0,73,0.00,CLR,SKC,0.00,WeatherDisplay:10.37,2013-01-21 16:57:00,
2013-01-21 11:02:00,-2.8,-9.6,30.19,WNW,291,10.5,13.8,72,0.00,CLR,SKC,0.00,WeatherDisplay:10.37,2013-01-21 17:02:00,
2013-01-21 11:07:00,-2.5,-9.0,30.19,WNW,298,9.9,13.8,73,0.00,CLR,SKC,0.00,WeatherDisplay:10.37,2013-01-21 17:07:00,
2013-01-21 11:12:00,-2.2,-8.5,30.19,NW,307,10.0,12.0,74,0.00,CLR,SKC,0.00,WeatherDisplay:10.37,2013-01-21 17:12:00,
2013-01-21 11:17:00,-2.3,-8.8,30.18,WNW,298,9.6,13.0,73,0.00,CLR,SKC,0.00,WeatherDisplay:10.37,2013-01-21 17:17:00,
2013-01-21 11:22:00,-1.6,-7.9,30.18,WNW,292,11.3,13.8,74,0.00,CLR,SKC,0.00,WeatherDisplay:10.37,2013-01-21 17:22:00,
2013-01-21 11:27:00,-1.8,-8.6,30.18,NW,308,9.4,11.5,72,0.00,CLR,SKC,0.00,WeatherDisplay:10.37,2013-01-21 17:27:00,
2013-01-21 11:32:00,-1.9,-8.7,30.18,WNW,295,10.0,12.7,72,0.00,CLR,SKC,0.00,WeatherDisplay:10.37,2013-01-21 17:32:00,
2013-01-21 11:37:00,-1.6,-8.2,30.17,WNW,282,9.8,12.0,73,0.00,CLR,SKC,0.00,WeatherDisplay:10.37,2013-01-21 17:37:00,
2013-01-21 11:42:00,-1.4,-8.2,30.17,NW,311,8.9,12.0,72,0.00,CLR,SKC,0.00,WeatherDisplay:10.37,2013-01-21 17:42:00,
2013-01-21 11:47:00,-0.8,-7.4,30.17,WNW,297,9.5,12.0,73,0.00,CLR,SKC,0.00,WeatherDisplay:10.37,2013-01-21 17:47:00,
2013-01-21 11:52:00,-0.8,-7.7,30.17,WNW,292,8.4,11.5,72,0.00,CLR,SKC,0.00,WeatherDisplay:10.37,2013-01-21 17:52:00,
2013-01-21 11:57:00,-0.9,-7.8,30.16,NW,304,9.1,12.0,72,0.00,CLR,SKC,0.00,WeatherDisplay:10.37,2013-01-21 17:57:00,
2013-01-21 12:02:00,-1.1,-8.0,30.16,WNW,298,10.3,11.5,72,0.00,CLR,SKC,0.00,WeatherDisplay:10.37,2013-01-21 18:02:00,
2013-01-21 12:07:00,-0.9,-7.5,30.16,WNW,303,10.5,16.1,73,0.00,CLR,SKC,0.00,WeatherDisplay:10.37,2013-01-21 18:07:00,
2013-01-21 12:12:00,-1.0,-7.9,30.16,WNW,297,8.9,11.5,72,0.00,CLR,SKC,0.00,WeatherDisplay:10.37,2013-01-21 18:12:00,
2013-01-21 12:17:00,-0.4,-7.0,30.15,WNW,286,11.1,14.0,73,0.00,CLR,SKC,0.00,WeatherDisplay:10.37,2013-01-21 18:17:00,
2013-01-21 12:22:00,0.0,-6.9,30.15,WNW,291,9.0,11.5,72,0.00,CLR,SKC,0.00,WeatherDisplay:10.37,2013-01-21 18:22:00,
2013-01-21 12:27:00,0.1,-6.8,30.15,WNW,289,9.8,11.5,72,0.00,CLR,SKC,0.00,WeatherDisplay:10.37,2013-01-21 18:27:00,
2013-01-21 12:32:00,0.2,-6.7,30.15,WNW,294,10.7,14.0,72,0.00,CLR,SKC,0.00,WeatherDisplay:10.37,2013-01-21 18:32:00,
2013-01-21 12:37:00,0.5,-6.4,30.14,WNW,296,9.6,12.7,72,0.00,CLR,SKC,0.00,WeatherDisplay:10.37,2013-01-21 18:37:00,
2013-01-21 12:42:00,0.2,-7.0,30.14,NW,309,8.7,11.5,71,0.00,CLR,SKC,0.00,WeatherDisplay:10.37,2013-01-21 18:42:00,
2013-01-21 12:47:00,-0.4,-7.6,30.14,WNW,302,8.6,11.5,71,0.00,CLR,SKC,0.00,WeatherDisplay:10.37,2013-01-21 18:47:00,
2013-01-21 12:52:00,-0.1,-7.0,30.14,WNW,290,6.2,10.0,72,0.00,CLR,SKC,0.00,WeatherDisplay:10.37,2013-01-21 18:52:00,
2013-01-21 12:57:00,0.2,-6.7,30.14,WNW,297,9.1,12.7,72,0.00,CLR,SKC,0.00,WeatherDisplay:10.37,2013-01-21 18:57:00,
2013-01-21 13:02:00,1.0,-5.9,30.13,WNW,300,10.2,12.0,72,0.00,CLR,SKC,0.00,WeatherDisplay:10.37,2013-01-21 19:02:00,
2013-01-21 13:07:00,1.3,-5.6,30.13,WNW,284,11.3,13.8,72,0.00,CLR,SKC,0.00,WeatherDisplay:10.37,2013-01-21 19:07:00,
2013-01-21 13:13:00,1.0,-6.5,30.13,WNW,300,9.3,11.5,70,0.00,CLR,SKC,0.00,WeatherDisplay:10.37,2013-01-21 19:13:00,
2013-01-21 13:18:00,0.8,-6.4,30.13,WNW,300,8.9,11.5,71,0.00,CLR,SKC,0.00,WeatherDisplay:10.37,2013-01-21 19:18:00,
2013-01-21 13:23:00,1.0,-6.2,30.13,WNW,292,11.4,16.1,71,0.00,CLR,SKC,0.00,WeatherDisplay:10.37,2013-01-21 19:23:00,
2013-01-21 13:28:00,1.4,-5.8,30.12,WNW,293,8.6,11.5,71,0.00,CLR,SKC,0.00,WeatherDisplay:10.37,2013-01-21 19:28:00,
2013-01-21 13:33:00,1.4,-5.8,30.13,WNW,294,10.2,12.7,71,0.00,CLR,SKC,0.00,WeatherDisplay:10.37,2013-01-21 19:33:00,
2013-01-21 13:38:00,1.1,-6.1,30.12,NW,305,8.6,11.0,71,0.00,CLR,SKC,0.00,WeatherDisplay:10.37,2013-01-21 19:38:00,
2013-01-21 13:43:00,1.1,-5.8,30.12,WNW,294,7.2,10.4,72,0.00,CLR,SKC,0.00,WeatherDisplay:10.37,2013-01-21 19:43:00,
2013-01-21 13:48:00,1.6,-5.3,30.12,WNW,294,6.2,9.0,72,0.00,CLR,SKC,0.00,WeatherDisplay:10.37,2013-01-21 19:48:00,
2013-01-21 13:53:00,2.0,-5.2,30.12,NW,308,8.6,10.4,71,0.00,CLR,SKC,0.00,WeatherDisplay:10.37,2013-01-21 19:53:00,
2013-01-21 13:58:00,2.3,-5.0,30.12,NW,306,10.2,11.5,71,0.00,CLR,SKC,0.00,WeatherDisplay:10.37,2013-01-21 19:58:00,
2013-01-21 14:03:00,2.3,-5.3,30.12,WNW,296,10.7,15.0,70,0.00,CLR,SKC,0.00,WeatherDisplay:10.37,2013-01-21 20:03:00,
2013-01-21 14:08:00,1.8,-5.7,30.12,WNW,286,9.2,13.0,70,0.00,CLR,SKC,0.00,WeatherDisplay:10.37,2013-01-21 20:08:00,
2013-01-21 14:13:00,2.2,-5.4,30.12,WNW,302,11.5,14.0,70,0.00,CLR,SKC,0.00,WeatherDisplay:10.37,2013-01-21 20:13:00,
2013-01-21 14:18:00,2.0,-5.8,30.12,WNW,284,9.6,12.0,69,0.00,CLR,SKC,0.00,WeatherDisplay:10.37,2013-01-21 20:18:00,
2013-01-21 14:23:00,2.8,-4.8,30.11,WNW,286,8.5,11.0,70,0.00,CLR,SKC,0.00,WeatherDisplay:10.37,2013-01-21 20:23:00,
2013-01-21 14:28:00,2.8,-5.1,30.11,WNW,286,9.4,12.7,69,0.00,CLR,SKC,0.00,WeatherDisplay:10.37,2013-01-21 20:28:00,
2013-01-21 14:33:00,2.4,-5.5,30.12,NW,304,9.8,15.0,69,0.00,CLR,SKC,0.00,WeatherDisplay:10.37,2013-01-21 20:33:00,
2013-01-21 14:38:00,2.3,-5.6,30.11,WNW,298,9.2,11.5,69,0.00,CLR,SKC,0.00,WeatherDisplay:10.37,2013-01-21 20:38:00,
2013-01-21 14:43:00,2.2,-6.0,30.11,WNW,300,8.1,10.4,68,0.00,CLR,SKC,0.00,WeatherDisplay:10.37,2013-01-21 20:43:00,
2013-01-21 14:48:00,2.2,-6.3,30.12,NW,304,10.0,13.8,67,0.00,CLR,SKC,0.00,WeatherDisplay:10.37,2013-01-21 20:48:00,
2013-01-21 14:53:00,2.6,-5.3,30.12,WNW,301,8.1,11.5,69,0.00,CLR,SKC,0.00,WeatherDisplay:10.37,2013-01-21 20:53:00,
2013-01-21 14:58:00,2.7,-5.2,30.12,NW,306,10.9,13.0,69,0.00,CLR,SKC,0.00,WeatherDisplay:10.37,2013-01-21 20:58:00,
2013-01-21 15:03:00,2.1,-6.0,30.12,WNW,298,8.2,11.5,68,0.00,CLR,SKC,0.00,WeatherDisplay:10.37,2013-01-21 21:03:00,
2013-01-21 15:08:00,2.0,-5.8,30.12,WNW,292,11.6,15.0,69,0.00,CLR,SKC,0.00,WeatherDisplay:10.37,2013-01-21 21:08:00,
2013-01-21 15:13:00,2.2,-6.0,30.12,WNW,295,10.0,12.0,68,0.00,CLR,SKC,0.00,WeatherDisplay:10.37,2013-01-21 21:13:00,
2013-01-21 15:18:00,2.2,-6.0,30.12,WNW,300,9.6,11.5,68,0.00,CLR,SKC,0.00,WeatherDisplay:10.37,2013-01-21 21:18:00,
2013-01-21 15:23:00,2.2,-6.0,30.12,WNW,298,8.8,11.5,68,0.00,CLR,SKC,0.00,WeatherDisplay:10.37,2013-01-21 21:23:00,
2013-01-21 15:28:00,2.4,-5.5,30.12,WNW,298,8.8,11.5,69,0.00,CLR,SKC,0.00,WeatherDisplay:10.37,2013-01-21 21:28:00,
2013-01-21 15:33:00,2.3,-5.6,30.12,WNW,300,10.2,14.0,69,0.00,CLR,SKC,0.00,WeatherDisplay:10.37,2013-01-21 21:33:00,
2013-01-21 15:39:00,2.3,-5.6,30.12,WNW,287,10.0,13.0,69,0.00,CLR,SKC,0.00,WeatherDisplay:10.37,2013-01-21 21:39:00,
2013-01-21 15:44:00,2.2,-5.6,30.12,WNW,295,9.5,12.0,69,0.00,CLR,SKC,0.00,WeatherDisplay:10.37,2013-01-21 21:44:00,
2013-01-21 15:49:00,2.0,-5.8,30.12,WNW,295,9.9,12.0,69,0.00,CLR,SKC,0.00,WeatherDisplay:10.37,2013-01-21 21:49:00,
2013-01-21 15:54:00,2.2,-5.6,30.12,WNW,300,9.2,11.5,69,0.00,CLR,SKC,0.00,WeatherDisplay:10.37,2013-01-21 21:54:00,
2013-01-21 15:59:00,1.9,-6.2,30.12,NW,305,10.1,13.0,68,0.00,CLR,SKC,0.00,WeatherDisplay:10.37,2013-01-21 21:59:00,
2013-01-21 16:04:00,1.5,-6.3,30.12,NW,304,7.6,10.4,69,0.00,CLR,SKC,0.00,WeatherDisplay:10.37,2013-01-21 22:04:00,
2013-01-21 16:10:00,1.5,-6.3,30.12,WNW,290,8.5,11.0,69,0.00,CLR,SKC,0.00,WeatherDisplay:10.37,2013-01-21 22:10:00,
2013-01-21 16:15:00,1.7,-5.8,30.12,WNW,295,9.7,13.8,70,0.00,CLR,SKC,0.00,WeatherDisplay:10.37,2013-01-21 22:15:00,
2013-01-21 16:20:00,1.4,-6.4,30.12,WNW,286,8.5,11.5,69,0.00,CLR,SKC,0.00,WeatherDisplay:10.37,2013-01-21 22:20:00,
2013-01-21 16:25:00,1.4,-6.4,30.12,WNW,286,10.9,12.7,69,0.00,CLR,SKC,0.00,WeatherDisplay:10.37,2013-01-21 22:25:00,
2013-01-21 16:30:00,1.2,-6.6,30.12,WNW,295,9.8,13.0,69,0.00,CLR,SKC,0.00,WeatherDisplay:10.37,2013-01-21 22:30:00,
2013-01-21 16:35:00,1.0,-6.5,30.12,WNW,284,10.7,13.0,70,0.00,CLR,SKC,0.00,WeatherDisplay:10.37,2013-01-21 22:35:00,
2013-01-21 16:40:00,0.9,-6.6,30.13,WNW,293,7.6,10.4,70,0.00,CLR,SKC,0.00,WeatherDisplay:10.37,2013-01-21 22:40:00,
2013-01-21 16:45:00,0.8,-6.7,30.13,WNW,294,8.5,11.5,70,0.00,CLR,SKC,0.00,WeatherDisplay:10.37,2013-01-21 22:45:00,
2013-01-21 16:50:00,0.6,-6.6,30.13,WNW,289,11.1,12.0,71,0.00,CLR,SKC,0.00,WeatherDisplay:10.37,2013-01-21 22:50:00,
2013-01-21 16:55:00,0.3,-7.2,30.13,WNW,290,9.7,11.5,70,0.00,CLR,SKC,0.00,WeatherDisplay:10.37,2013-01-21 22:55:00,
2013-01-21 17:00:00,0.2,-7.0,30.13,WNW,297,9.7,12.7,71,0.00,CLR,SKC,0.00,WeatherDisplay:10.37,2013-01-21 23:00:00,
2013-01-21 17:05:00,0.0,-7.2,30.13,WNW,296,8.9,12.7,71,0.00,CLR,SKC,0.00,WeatherDisplay:10.37,2013-01-21 23:05:00,
2013-01-21 17:10:00,-0.1,-7.3,30.13,WNW,298,6.4,9.2,71,0.00,CLR,SKC,0.00,WeatherDisplay:10.37,2013-01-21 23:10:00,
2013-01-21 17:15:00,-0.1,-7.3,30.13,WNW,298,6.0,6.0,71,0.00,CLR,SKC,0.00,WeatherDisplay:10.37,2013-01-21 23:15:00,
2013-01-21 17:20:00,-0.3,-7.2,30.13,WNW,293,7.4,9.2,72,0.00,CLR,SKC,0.00,WeatherDisplay:10.37,2013-01-21 23:20:00,
2013-01-21 17:25:00,-0.4,-7.3,30.13,WNW,285,9.2,11.5,72,0.00,CLR,SKC,0.00,WeatherDisplay:10.37,2013-01-21 23:25:00,
2013-01-21 17:30:00,-0.5,-7.1,30.13,WNW,290,5.9,8.1,73,0.00,CLR,SKC,0.00,WeatherDisplay:10.37,2013-01-21 23:30:00,
2013-01-21 17:35:00,-0.5,-7.1,30.13,WNW,292,5.2,6.9,73,0.00,CLR,SKC,0.00,WeatherDisplay:10.37,2013-01-21 23:35:00,
2013-01-21 17:40:00,-0.7,-7.3,30.13,WNW,296,7.3,9.2,73,0.00,CLR,SKC,0.00,WeatherDisplay:10.37,2013-01-21 23:40:00,
2013-01-21 17:45:00,-0.7,-7.3,30.13,WNW,289,7.5,11.0,73,0.00,CLR,SKC,0.00,WeatherDisplay:10.37,2013-01-21 23:45:00,
2013-01-21 17:50:00,-0.8,-7.4,30.13,WNW,292,7.2,8.0,73,0.00,CLR,SKC,0.00,WeatherDisplay:10.37,2013-01-21 23:50:00,
2013-01-21 17:55:00,-0.9,-7.5,30.13,WNW,299,9.3,11.0,73,0.00,CLR,SKC,0.00,WeatherDisplay:10.37,2013-01-21 23:55:00,
2013-01-21 18:00:00,-0.9,-7.5,30.14,WNW,294,7.4,9.0,73,0.00,CLR,SKC,0.00,WeatherDisplay:10.37,2013-01-22 00:00:00,
2013-01-21 18:05:00,-1.0,-7.6,30.14,WNW,290,6.7,9.2,73,0.00,CLR,SKC,0.00,WeatherDisplay:10.37,2013-01-22 00:05:00,
2013-01-21 18:06:00,-0.8,-6.3,30.15,WNW,292,6.0,10.0,77,0.00,CLR,SKC,0.00,WeatherDisplay:10.37,2013-01-22 00:06:00,
2013-01-21 18:10:00,-1.0,-7.6,30.14,WNW,290,7.8,9.0,73,0.00,CLR,SKC,0.00,WeatherDisplay:10.37,2013-01-22 00:10:00,
2013-01-21 18:15:00,-1.1,-7.7,30.14,WNW,296,5.4,8.1,73,0.00,CLR,SKC,0.00,WeatherDisplay:10.37,2013-01-22 00:15:00,
2013-01-21 18:20:00,-1.1,-7.7,30.14,WNW,297,7.7,11.0,73,0.00,CLR,SKC,0.00,WeatherDisplay:10.37,2013-01-22 00:20:00,
2013-01-21 18:21:00,-0.9,-6.4,30.16,WNW,292,5.0,8.0,77,0.00,CLR,SKC,0.00,WeatherDisplay:10.37,2013-01-22 00:21:00,
2013-01-21 18:25:00,-1.2,-7.5,30.14,WNW,296,6.2,9.2,74,0.00,CLR,SKC,0.00,WeatherDisplay:10.37,2013-01-22 00:25:00,
2013-01-21 18:30:00,-1.2,-7.5,30.14,WNW,296,5.8,9.0,74,0.00,CLR,SKC,0.00,WeatherDisplay:10.37,2013-01-22 00:30:00,
2013-01-21 18:35:00,-1.3,-7.6,30.14,WNW,295,6.7,9.0,74,0.00,CLR,SKC,0.00,WeatherDisplay:10.37,2013-01-22 00:35:00,
2013-01-21 18:36:00,-1.2,-6.7,30.16,WNW,292,5.0,8.0,77,0.00,CLR,SKC,0.00,WeatherDisplay:10.37,2013-01-22 00:36:00,
2013-01-21 18:40:00,-1.4,-7.7,30.14,WNW,296,7.0,9.2,74,0.00,CLR,SKC,0.00,WeatherDisplay:10.37,2013-01-22 00:40:00,
2013-01-21 18:45:00,-1.4,-7.7,30.14,WNW,294,7.8,11.5,74,0.00,CLR,SKC,0.00,WeatherDisplay:10.37,2013-01-22 00:45:00,
2013-01-21 18:50:00,-1.4,-7.7,30.14,WNW,293,7.7,10.4,74,0.00,CLR,SKC,0.00,WeatherDisplay:10.37,2013-01-22 00:50:00,
2013-01-21 18:51:00,-1.4,-6.6,30.16,WNW,292,5.0,8.0,78,0.00,CLR,SKC,0.00,WeatherDisplay:10.37,2013-01-22 00:51:00,
2013-01-21 18:55:00,-1.5,-7.5,30.14,WNW,292,7.7,9.0,75,0.00,CLR,SKC,0.00,WeatherDisplay:10.37,2013-01-22 00:55:00,
2013-01-21 19:00:00,-1.5,-7.5,30.14,WNW,288,7.6,10.4,75,0.00,CLR,SKC,0.00,WeatherDisplay:10.37,2013-01-22 01:00:00,
2013-01-21 19:05:00,-1.6,-7.6,30.14,NW,306,6.0,7.0,75,0.00,CLR,SKC,0.00,WeatherDisplay:10.37,2013-01-22 01:05:00,
2013-01-21 19:06:00,-1.5,-6.7,30.16,WNW,292,5.0,7.0,78,0.00,CLR,SKC,0.00,WeatherDisplay:10.37,2013-01-22 01:06:00,
2013-01-21 19:10:00,-1.6,-7.6,30.14,WNW,296,7.5,9.2,75,0.00,CLR,SKC,0.00,WeatherDisplay:10.37,2013-01-22 01:10:00,
2013-01-21 19:15:00,-1.7,-7.7,30.15,WNW,290,6.6,8.0,75,0.00,CLR,SKC,0.00,WeatherDisplay:10.37,2013-01-22 01:15:00,
2013-01-21 19:20:00,-1.7,-7.7,30.14,NW,305,7.9,9.2,75,0.00,CLR,SKC,0.00,WeatherDisplay:10.37,2013-01-22 01:20:00,
2013-01-21 19:21:00,-1.6,-6.8,30.17,WNW,292,3.0,7.0,78,0.00,CLR,SKC,0.00,WeatherDisplay:10.37,2013-01-22 01:21:00,
2013-01-21 19:25:00,-1.8,-7.8,30.15,WNW,296,6.0,9.2,75,0.00,CLR,SKC,0.00,WeatherDisplay:10.37,2013-01-22 01:25:00,
2013-01-21 19:30:00,-1.8,-7.8,30.15,WNW,298,7.4,10.0,75,0.00,CLR,SKC,0.00,WeatherDisplay:10.37,2013-01-22 01:30:00,
2013-01-21 19:35:00,-1.8,-7.8,30.15,WNW,300,5.7,8.1,75,0.00,CLR,SKC,0.00,WeatherDisplay:10.37,2013-01-22 01:35:00,
2013-01-21 19:36:00,-1.5,-6.7,30.17,WNW,292,5.0,7.0,78,0.00,CLR,SKC,0.00,WeatherDisplay:10.37,2013-01-22 01:36:00,
2013-01-21 19:40:00,-1.9,-7.9,30.15,WNW,296,5.5,9.2,75,0.00,CLR,SKC,0.00,WeatherDisplay:10.37,2013-01-22 01:40:00,
2013-01-21 19:45:00,-2.0,-8.0,30.15,WNW,296,5.4,7.0,75,0.00,CLR,SKC,0.00,WeatherDisplay:10.37,2013-01-22 01:45:00,
2013-01-21 19:50:00,-2.0,-8.0,30.15,WNW,299,7.0,9.0,75,0.00,CLR,SKC,0.00,WeatherDisplay:10.37,2013-01-22 01:50:00,
2013-01-21 19:51:00,-1.6,-6.8,30.17,WNW,292,5.0,7.0,78,0.00,CLR,SKC,0.00,WeatherDisplay:10.37,2013-01-22 01:51:00,
2013-01-21 19:55:00,-2.0,-8.0,30.15,WNW,294,6.0,8.0,75,0.00,CLR,SKC,0.00,WeatherDisplay:10.37,2013-01-22 01:55:00,
2013-01-21 20:00:00,-2.1,-8.1,30.15,NW,305,7.4,10.0,75,0.00,CLR,SKC,0.00,WeatherDisplay:10.37,2013-01-22 02:00:00,
2013-01-21 20:05:00,-2.1,-8.1,30.15,WNW,295,6.8,9.0,75,0.00,CLR,SKC,0.00,WeatherDisplay:10.37,2013-01-22 02:05:00,
2013-01-21 20:06:00,-1.8,-7.0,30.18,WNW,292,3.0,7.0,78,0.00,CLR,SKC,0.00,WeatherDisplay:10.37,2013-01-22 02:06:00,
2013-01-21 20:11:00,-2.2,-8.2,30.15,WNW,301,6.2,8.1,75,0.00,CLR,SKC,0.00,WeatherDisplay:10.37,2013-01-22 02:11:00,
2013-01-21 20:16:00,-2.2,-8.2,30.15,WNW,303,5.5,7.0,75,0.00,CLR,SKC,0.00,WeatherDisplay:10.37,2013-01-22 02:16:00,
2013-01-21 20:21:00,-2.2,-7.9,30.15,WNW,294,5.5,7.0,76,0.00,CLR,SKC,0.00,WeatherDisplay:10.37,2013-01-22 02:21:00,
2013-01-21 20:26:00,-2.3,-8.0,30.15,WNW,296,4.5,6.0,76,0.00,CLR,SKC,0.00,WeatherDisplay:10.37,2013-01-22 02:26:00,
2013-01-21 20:31:00,-2.3,-8.0,30.15,WNW,294,5.2,6.0,76,0.00,CLR,SKC,0.00,WeatherDisplay:10.37,2013-01-22 02:31:00,
2013-01-21 20:36:00,-2.4,-8.1,30.16,WNW,298,4.6,6.0,76,0.00,CLR,SKC,0.00,WeatherDisplay:10.37,2013-01-22 02:36:00,
2013-01-21 20:41:00,-2.5,-8.2,30.15,WNW,293,4.0,5.0,76,0.00,CLR,SKC,0.00,WeatherDisplay:10.37,2013-01-22 02:41:00,
2013-01-21 20:46:00,-2.5,-8.2,30.15,WNW,295,3.6,4.6,76,0.00,CLR,SKC,0.00,WeatherDisplay:10.37,2013-01-22 02:46:00,
2013-01-21 20:51:00,-2.5,-8.2,30.15,WNW,295,3.6,4.6,76,0.00,CLR,SKC,0.00,WeatherDisplay:10.37,2013-01-22 02:51:00,
2013-01-21 20:56:00,-2.6,-8.0,30.15,WNW,296,2.3,3.5,77,0.00,CLR,SKC,0.00,WeatherDisplay:10.37,2013-01-22 02:56:00,
2013-01-21 21:01:00,-2.7,-8.1,30.16,WNW,295,4.1,5.0,77,0.00,CLR,SKC,0.00,WeatherDisplay:10.37,2013-01-22 03:01:00,
2013-01-21 21:06:00,-2.7,-8.1,30.16,WNW,293,3.6,5.0,77,0.00,CLR,SKC,0.00,WeatherDisplay:10.37,2013-01-22 03:06:00,
2013-01-21 21:11:00,-2.7,-8.1,30.15,WNW,285,4.9,5.8,77,0.00,CLR,SKC,0.00,WeatherDisplay:10.37,2013-01-22 03:11:00,
2013-01-21 21:16:00,-2.7,-8.1,30.15,WNW,285,4.5,5.8,77,0.00,CLR,SKC,0.00,WeatherDisplay:10.37,2013-01-22 03:16:00,
2013-01-21 21:21:00,-2.7,-8.1,30.16,WNW,286,4.6,5.8,77,0.00,CLR,SKC,0.00,WeatherDisplay:10.37,2013-01-22 03:21:00,
2013-01-21 21:26:00,-2.7,-8.1,30.16,West,279,4.8,6.0,77,0.00,CLR,SKC,0.00,WeatherDisplay:10.37,2013-01-22 03:26:00,
2013-01-21 21:31:00,-2.8,-8.2,30.15,West,279,3.7,4.6,77,0.00,CLR,SKC,0.00,WeatherDisplay:10.37,2013-01-22 03:31:00,
2013-01-21 21:36:00,-2.9,-8.3,30.15,West,279,4.1,5.0,77,0.00,CLR,SKC,0.00,WeatherDisplay:10.37,2013-01-22 03:36:00,
2013-01-21 21:41:00,-2.8,-8.2,30.15,West,279,3.4,4.6,77,0.00,CLR,SKC,0.00,WeatherDisplay:10.37,2013-01-22 03:41:00,
2013-01-21 21:46:00,-2.8,-8.2,30.15,West,279,4.0,5.0,77,0.00,CLR,SKC,0.00,WeatherDisplay:10.37,2013-01-22 03:46:00,
2013-01-21 21:51:00,-2.7,-7.9,30.15,West,279,3.5,4.0,78,0.00,CLR,SKC,0.00,WeatherDisplay:10.37,2013-01-22 03:51:00,
2013-01-21 21:56:00,-2.6,-8.0,30.15,West,279,3.6,5.0,77,0.00,CLR,SKC,0.00,WeatherDisplay:10.37,2013-01-22 03:56:00,
2013-01-21 22:01:00,-2.6,-8.0,30.15,West,279,3.5,4.6,77,0.00,CLR,SKC,0.00,WeatherDisplay:10.37,2013-01-22 04:01:00,
2013-01-21 22:06:00,-2.6,-8.0,30.16,West,279,3.2,4.6,77,0.00,CLR,SKC,0.00,WeatherDisplay:10.37,2013-01-22 04:06:00,
2013-01-21 22:11:00,-2.5,-7.7,30.15,West,279,4.1,5.8,78,0.00,CLR,SKC,0.00,WeatherDisplay:10.37,2013-01-22 04:11:00,
2013-01-21 22:16:00,-2.4,-7.6,30.15,WNW,284,4.0,5.0,78,0.00,CLR,SKC,0.00,WeatherDisplay:10.37,2013-01-22 04:16:00,
2013-01-21 22:21:00,-2.4,-7.6,30.15,WNW,285,4.4,6.0,78,0.00,CLR,SKC,0.00,WeatherDisplay:10.37,2013-01-22 04:21:00,
2013-01-21 22:26:00,-2.3,-7.7,30.15,WNW,285,5.2,6.0,77,0.00,CLR,SKC,0.00,WeatherDisplay:10.37,2013-01-22 04:26:00,
2013-01-21 22:31:00,-2.2,-7.6,30.15,WNW,288,4.8,5.8,77,0.00,CLR,SKC,0.00,WeatherDisplay:10.37,2013-01-22 04:31:00,
2013-01-21 22:36:00,-2.3,-7.7,30.15,WNW,285,4.3,5.0,77,0.00,CLR,SKC,0.00,WeatherDisplay:10.37,2013-01-22 04:36:00,
2013-01-21 22:41:00,-2.3,-7.7,30.15,WNW,284,4.2,5.0,77,0.00,CLR,SKC,0.00,WeatherDisplay:10.37,2013-01-22 04:41:00,
2013-01-21 22:46:00,-2.3,-7.7,30.15,WNW,284,4.5,6.9,77,0.00,CLR,SKC,0.00,WeatherDisplay:10.37,2013-01-22 04:46:00,
2013-01-21 22:51:00,-2.2,-7.4,30.15,WNW,288,4.6,5.8,78,0.00,CLR,SKC,0.00,WeatherDisplay:10.37,2013-01-22 04:51:00,
2013-01-21 22:56:00,-2.3,-7.5,30.16,WNW,285,4.8,5.0,78,0.00,CLR,SKC,0.00,WeatherDisplay:10.37,2013-01-22 04:56:00,
2013-01-21 23:00:00,-2.2,-7.6,30.16,WNW,283,4.4,6.0,77,0.00,CLR,SKC,0.00,WeatherDisplay:10.37,2013-01-22 05:00:00,
2013-01-21 23:01:00,-2.3,-7.7,30.16,WNW,284,4.9,5.8,77,0.00,CLR,SKC,0.00,WeatherDisplay:10.37,2013-01-22 05:01:00,
2013-01-21 23:03:00,-2.3,-7.7,30.16,WNW,284,5.0,5.0,77,0.00,CLR,SKC,0.00,WeatherDisplay:10.37,2013-01-22 05:03:00,
2013-01-21 23:04:00,-2.3,-7.7,30.16,WNW,284,5.0,5.0,77,0.00,CLR,SKC,0.00,WeatherDisplay:10.37,2013-01-22 05:04:00,
2013-01-21 23:06:00,-4.2,-9.6,30.18,WNW,292,3.0,9.0,77,0.00,CLR,SKC,0.00,WeatherDisplay:10.37,2013-01-22 05:06:00,
2013-01-21 23:10:00,-1.9,-7.1,30.16,WNW,282,5.3,7.0,78,0.00,CLR,SKC,0.00,WeatherDisplay:10.37,2013-01-22 05:10:00,
2013-01-21 23:16:00,-1.6,-7.1,30.16,WNW,290,6.6,8.1,77,0.00,CLR,SKC,0.00,WeatherDisplay:10.37,2013-01-22 05:16:00,
2013-01-21 23:21:00,-1.3,-6.8,30.16,WNW,286,7.1,9.0,77,0.00,CLR,SKC,0.00,WeatherDisplay:10.37,2013-01-22 05:21:00,
2013-01-21 23:26:00,-1.0,-6.5,30.16,WNW,292,7.3,9.2,77,0.00,CLR,SKC,0.00,WeatherDisplay:10.37,2013-01-22 05:26:00,
2013-01-21 23:31:00,-0.9,-6.4,30.16,WNW,287,6.3,8.1,77,0.00,CLR,SKC,0.00,WeatherDisplay:10.37,2013-01-22 05:31:00,
2013-01-21 23:36:00,-0.9,-6.4,30.16,WNW,291,8.0,10.0,77,0.00,CLR,SKC,0.00,WeatherDisplay:10.37,2013-01-22 05:36:00,
2013-01-21 23:42:00,-0.9,-6.4,30.16,WNW,294,5.8,8.1,77,0.00,CLR,SKC,0.00,WeatherDisplay:10.37,2013-01-22 05:42:00,
2013-01-21 23:51:00,-5.1,-10.5,30.18,WNW,292,3.0,8.0,77,0.00,CLR,SKC,0.00,WeatherDisplay:10.37,2013-01-22 05:51:00,